createdAt,value
2023-01-30T00:02:26.853Z,10.50
2023-01-30T00:07:35.395Z,10.63
2023-01-30T00:12:38.797Z,10.27
2023-01-30T00:17:41.998Z,8.07
2023-01-30T00:22:59.225Z,11.07
2023-01-30T00:28:04.146Z,9.50
2023-01-30T00:33:07.254Z,10.23
2023-01-30T00:38:11.883Z,8.63
2023-01-30T00:43:34.361Z,9.80
2023-01-30T00:48:37.951Z,10.33
2023-01-30T00:53:42.513Z,11.80
2023-01-30T00:58:45.706Z,10.63
2023-01-30T01:03:48.923Z,10.23
2023-01-30T01:08:53.564Z,11.33
2023-01-30T01:13:58.021Z,9.77
2023-01-30T01:19:01.805Z,10.90
2023-01-30T01:24:09.004Z,9.47
2023-01-30T01:29:14.319Z,12.83
2023-01-30T01:34:17.477Z,12.03
2023-01-30T01:39:23.124Z,13.13
2023-01-30T01:44:26.459Z,12.03
2023-01-30T01:49:32.261Z,10.43
2023-01-30T01:54:41.430Z,9.47
2023-01-30T01:59:50.138Z,9.70
2023-01-30T02:05:06.480Z,8.37
2023-01-30T02:10:31.983Z,8.37
2023-01-30T02:15:35.630Z,8.73
2023-01-30T02:20:58.189Z,10.10
2023-01-30T02:26:40.207Z,8.83
2023-01-30T02:31:53.641Z,9.47
2023-01-30T02:37:10.158Z,10.73
2023-01-30T02:42:20.960Z,10.30
2023-01-30T02:47:31.458Z,8.30
2023-01-30T02:52:35.490Z,8.13
2023-01-30T02:57:39.254Z,8.50
2023-01-30T03:03:08.240Z,9.80
2023-01-30T03:08:21.533Z,9.10
2023-01-30T03:13:35.910Z,7.80
2023-01-30T03:18:42.290Z,9.27
2023-01-30T03:23:46.960Z,7.00
2023-01-30T03:28:51.675Z,8.37
2023-01-30T03:33:56.313Z,7.37
2023-01-30T03:38:59.584Z,7.27
2023-01-30T03:44:03.003Z,9.27
2023-01-30T03:49:07.579Z,7.30
2023-01-30T03:54:10.707Z,8.47
2023-01-30T03:59:14.214Z,9.57
2023-01-30T04:04:18.841Z,8.70
2023-01-30T04:09:22.210Z,9.23
2023-01-30T04:14:25.779Z,8.60
2023-01-30T04:19:30.487Z,9.73
2023-01-30T04:24:33.651Z,9.67
2023-01-30T04:29:36.993Z,9.47
2023-01-30T04:34:42.286Z,9.97
2023-01-30T04:39:45.617Z,9.00
2023-01-30T04:44:48.797Z,8.73
2023-01-30T04:49:53.777Z,8.00
2023-01-30T04:54:56.999Z,7.90
2023-01-30T05:00:00.218Z,9.20
2023-01-30T05:05:05.093Z,9.87
2023-01-30T05:10:09.244Z,9.73
2023-01-30T05:15:13.306Z,9.10
2023-01-30T05:20:17.875Z,9.03
2023-01-30T05:25:21.228Z,9.00
2023-01-30T05:30:24.421Z,9.20
2023-01-30T05:35:29.167Z,7.70
2023-01-30T05:40:32.232Z,8.17
2023-01-30T05:45:35.357Z,8.40
2023-01-30T05:50:39.996Z,8.17
2023-01-30T05:55:43.917Z,8.07
2023-01-30T06:01:02.333Z,9.83
2023-01-30T06:06:07.630Z,8.00
2023-01-30T06:11:27.190Z,7.73
2023-01-30T06:16:30.559Z,8.70
2023-01-30T06:21:35.343Z,8.23
2023-01-30T06:26:38.413Z,9.17
2023-01-30T06:31:41.593Z,10.37
2023-01-30T06:36:46.214Z,8.27
2023-01-30T06:41:55.039Z,8.77
2023-01-30T06:46:58.680Z,8.33
2023-01-30T06:52:11.465Z,8.07
2023-01-30T06:57:14.924Z,7.43
2023-01-30T07:02:19.198Z,6.93
2023-01-30T07:07:23.717Z,6.80
2023-01-30T07:12:27.751Z,6.13
2023-01-30T07:17:31.337Z,6.60
2023-01-30T07:22:35.943Z,8.90
2023-01-30T07:27:41.311Z,6.83
2023-01-30T07:32:44.484Z,7.20
2023-01-30T07:37:49.871Z,6.77
2023-01-30T07:43:01.053Z,5.47
2023-01-30T07:48:04.391Z,6.53
2023-01-30T07:53:11.927Z,5.60
2023-01-30T07:58:16.100Z,6.30
2023-01-30T08:03:19.622Z,4.83
2023-01-30T08:08:24.278Z,4.57
2023-01-30T08:13:27.973Z,5.47
2023-01-30T08:18:31.823Z,4.87
2023-01-30T08:23:36.415Z,4.27
2023-01-30T08:28:41.096Z,4.10
2023-01-30T08:33:44.683Z,4.17
2023-01-30T08:38:49.309Z,3.83
2023-01-30T08:43:52.373Z,3.77
2023-01-30T08:48:55.564Z,3.20
2023-01-30T08:54:00.439Z,5.33
2023-01-30T08:59:03.680Z,4.07
2023-01-30T09:04:08.565Z,2.83
2023-01-30T09:09:13.191Z,3.30
2023-01-30T09:14:19.775Z,3.00
2023-01-30T09:19:22.917Z,2.40
2023-01-30T09:24:27.902Z,3.43
2023-01-30T09:29:31.220Z,2.93
2023-01-30T09:34:34.732Z,2.97
2023-01-30T09:39:39.394Z,2.60
2023-01-30T09:45:03.865Z,2.30
2023-01-30T09:50:25.078Z,5.83
2023-01-30T09:55:32.577Z,2.73
2023-01-30T10:00:37.880Z,2.10
2023-01-30T10:05:46.369Z,2.03
2023-01-30T10:11:09.574Z,2.60
2023-01-30T10:16:20.561Z,2.83
2023-01-30T10:21:36.727Z,2.10
2023-01-30T10:26:42.814Z,2.70
2023-01-30T10:31:50.352Z,2.43
2023-01-30T10:37:01.503Z,3.03
2023-01-30T10:42:12.611Z,3.77
2023-01-30T10:47:46.314Z,2.63
2023-01-30T10:52:57.362Z,3.10
2023-01-30T10:58:08.913Z,3.37
2023-01-30T11:03:29.734Z,2.63
2023-01-30T11:08:35.481Z,3.70
2023-01-30T11:13:40.179Z,2.73
2023-01-30T11:19:19.389Z,4.33
2023-01-30T11:24:18.249Z,2.57
2023-01-30T11:29:33.832Z,4.37
2023-01-30T11:34:36.930Z,2.80
2023-01-30T11:39:51.761Z,2.87
2023-01-30T11:45:16.062Z,2.40
2023-01-30T11:50:23.338Z,2.73
2023-01-30T11:55:28.853Z,3.17
2023-01-30T12:00:40.927Z,2.60
2023-01-30T12:05:47.923Z,3.83
2023-01-30T12:10:55.346Z,3.70
2023-01-30T12:16:22.639Z,5.20
2023-01-30T12:21:35.963Z,4.60
2023-01-30T12:26:45.673Z,4.10
2023-01-30T12:31:53.411Z,4.40
2023-01-30T12:37:09.194Z,5.27
2023-01-30T12:42:27.718Z,6.00
2023-01-30T12:47:47.770Z,4.53
2023-01-30T12:53:06.285Z,3.23
2023-01-30T12:58:16.378Z,3.33
2023-01-30T13:03:27.976Z,3.57
2023-01-30T13:08:55.505Z,4.07
2023-01-30T13:14:07.013Z,4.97
2023-01-30T13:19:25.334Z,5.03
2023-01-30T13:24:42.488Z,2.57
2023-01-30T13:29:47.049Z,3.40
2023-01-30T13:34:54.640Z,6.13
2023-01-30T13:40:04.270Z,4.00
2023-01-30T13:45:16.287Z,2.97
2023-01-30T13:50:35.799Z,2.87
2023-01-30T13:55:48.715Z,5.10
2023-01-30T14:00:56.009Z,4.07
2023-01-30T14:06:15.713Z,3.93
2023-01-30T14:11:33.969Z,5.90
2023-01-30T14:16:45.675Z,8.20
2023-01-30T14:21:58.147Z,5.93
2023-01-30T14:27:03.985Z,5.43
2023-01-30T14:32:54.982Z,9.33
2023-01-30T14:38:14.935Z,3.60
2023-01-30T14:43:53.281Z,3.83
2023-01-30T14:49:05.216Z,5.27
2023-01-30T14:54:23.438Z,5.87
2023-01-30T14:59:32.258Z,6.13
2023-01-30T15:04:43.601Z,4.27
2023-01-30T15:09:55.153Z,5.50
2023-01-30T15:15:12.533Z,8.10
2023-01-30T15:20:35.698Z,5.10
2023-01-30T15:25:53.111Z,7.70
2023-01-30T15:31:05.581Z,5.13
2023-01-30T15:36:20.600Z,4.57
2023-01-30T15:41:28.568Z,5.70
2023-01-30T15:46:44.740Z,6.47
2023-01-30T15:51:49.463Z,5.83
2023-01-30T15:57:00.839Z,8.00
2023-01-30T16:02:08.148Z,5.17
2023-01-30T16:07:19.515Z,5.20
2023-01-30T16:12:28.709Z,7.73
2023-01-30T16:17:36.514Z,9.67
2023-01-30T16:22:49.524Z,6.37
2023-01-30T16:27:55.347Z,9.27
2023-01-30T16:33:10.614Z,5.20
2023-01-30T16:38:37.380Z,7.37
2023-01-30T16:43:44.468Z,4.33
2023-01-30T16:48:52.985Z,6.50
2023-01-30T16:54:06.161Z,10.00
2023-01-30T16:59:23.405Z,12.10
2023-01-30T17:04:36.798Z,5.97
2023-01-30T17:09:43.685Z,6.60
2023-01-30T17:14:50.354Z,9.43
2023-01-30T17:20:00.481Z,5.03
2023-01-30T17:25:06.475Z,5.37
2023-01-30T17:30:19.345Z,4.73
2023-01-30T17:35:26.141Z,6.27
2023-01-30T17:40:37.967Z,6.63
2023-01-30T17:45:42.888Z,4.90
2023-01-30T17:50:46.734Z,10.43
2023-01-30T17:55:53.082Z,7.90
2023-01-30T18:00:57.985Z,6.97
2023-01-30T18:06:07.180Z,5.13
2023-01-30T18:11:12.107Z,8.50
2023-01-30T18:16:26.950Z,9.93
2023-01-30T18:21:30.732Z,7.67
2023-01-30T18:26:35.360Z,8.07
2023-01-30T18:31:41.217Z,7.77
2023-01-30T18:36:44.675Z,8.40
2023-01-30T18:41:47.898Z,8.03
2023-01-30T18:46:52.879Z,6.47
2023-01-30T18:51:56.343Z,9.73
2023-01-30T18:56:59.572Z,6.23
2023-01-30T19:02:04.116Z,7.90
2023-01-30T19:07:07.422Z,5.20
2023-01-30T19:12:34.254Z,6.63
2023-01-30T19:17:39.550Z,11.07
2023-01-30T19:22:43.044Z,8.47
2023-01-30T19:27:46.581Z,10.17
2023-01-30T19:32:53.553Z,7.23
2023-01-30T19:38:00.373Z,8.73
2023-01-30T19:43:10.858Z,8.50
2023-01-30T19:48:16.873Z,7.17
2023-01-30T19:53:20.259Z,8.03
2023-01-30T19:58:23.632Z,6.73
2023-01-30T20:03:28.515Z,8.20
2023-01-30T20:08:32.950Z,7.93
2023-01-30T20:13:36.995Z,9.40
2023-01-30T20:18:46.454Z,12.53
2023-01-30T20:23:52.700Z,13.60
2023-01-30T20:28:56.922Z,10.67
2023-01-30T20:34:02.163Z,10.17
2023-01-30T20:39:07.580Z,27.77
2023-01-30T20:44:15.672Z,18.13
2023-01-30T20:49:21.555Z,11.70
2023-01-30T20:54:25.258Z,7.47
2023-01-30T20:59:29.155Z,10.57
2023-01-30T21:04:33.851Z,8.07
2023-01-30T21:09:37.205Z,7.10
2023-01-30T21:14:41.369Z,12.97
2023-01-30T21:19:46.161Z,10.33
2023-01-30T21:24:49.929Z,10.63
2023-01-30T21:29:53.124Z,7.93
2023-01-30T21:34:58.175Z,11.07
2023-01-30T21:40:18.582Z,10.07
2023-01-30T21:45:32.331Z,11.50
2023-01-30T21:50:36.907Z,13.27
2023-01-30T21:55:43.703Z,9.70
2023-01-30T22:00:47.176Z,12.23
2023-01-30T22:05:51.670Z,8.17
2023-01-30T22:11:05.833Z,12.63
2023-01-30T22:16:11.478Z,10.67
2023-01-30T22:21:18.664Z,8.70
2023-01-30T22:26:25.545Z,8.80
2023-01-30T22:31:31.889Z,13.27
2023-01-30T22:36:41.394Z,12.63
2023-01-30T22:41:44.967Z,11.03
2023-01-30T22:46:51.128Z,13.37
2023-01-30T22:51:55.894Z,12.43
2023-01-30T22:56:59.638Z,13.13
2023-01-30T23:02:03.479Z,16.47
2023-01-30T23:07:08.681Z,13.77
2023-01-30T23:12:41.416Z,10.63
2023-01-30T23:18:02.432Z,14.57
2023-01-30T23:23:08.006Z,17.90
2023-01-30T23:28:11.464Z,9.43
2023-01-30T23:33:15.167Z,10.67
2023-01-30T23:38:20.176Z,10.10
2023-01-30T23:43:23.414Z,10.33
2023-01-30T23:48:26.667Z,7.67
2023-01-30T23:53:31.302Z,12.20
2023-01-30T23:58:35.176Z,12.00
